sensor_id;sensor_type;location;lat;lon;timestamp;P1;durP1;ratioP1;P2;durP2;ratioP2
71351;SDS011;59159;51.652;4.864;2023-02-28T00:02:20;4.75;;;1.60;;
71351;SDS011;59159;51.652;4.864;2023-02-28T00:04:46;5.88;;;1.77;;
71351;SDS011;59159;51.652;4.864;2023-02-28T00:07:18;4.77;;;1.63;;
71351;SDS011;59159;51.652;4.864;2023-02-28T00:09:44;5.43;;;1.45;;
71351;SDS011;59159;51.652;4.864;2023-02-28T00:12:10;6.00;;;1.67;;
71351;SDS011;59159;51.652;4.864;2023-02-28T00:14:36;4.87;;;1.63;;
71351;SDS011;59159;51.652;4.864;2023-02-28T00:17:02;5.13;;;1.73;;
71351;SDS011;59159;51.652;4.864;2023-02-28T00:19:28;5.70;;;2.25;;
71351;SDS011;59159;51.652;4.864;2023-02-28T00:21:54;5.45;;;1.60;;
71351;SDS011;59159;51.652;4.864;2023-02-28T00:24:20;4.90;;;1.57;;
71351;SDS011;59159;51.652;4.864;2023-02-28T00:26:46;4.90;;;1.58;;
71351;SDS011;59159;51.652;4.864;2023-02-28T00:29:12;4.25;;;1.25;;
71351;SDS011;59159;51.652;4.864;2023-02-28T00:31:38;4.50;;;1.40;;
71351;SDS011;59159;51.652;4.864;2023-02-28T00:34:04;5.03;;;1.48;;
71351;SDS011;59159;51.652;4.864;2023-02-28T00:36:30;5.65;;;1.65;;
71351;SDS011;59159;51.652;4.864;2023-02-28T00:38:56;4.60;;;1.43;;
71351;SDS011;59159;51.652;4.864;2023-02-28T00:41:22;4.47;;;1.42;;
71351;SDS011;59159;51.652;4.864;2023-02-28T00:43:48;5.68;;;1.58;;
71351;SDS011;59159;51.652;4.864;2023-02-28T00:46:14;4.93;;;1.45;;
71351;SDS011;59159;51.652;4.864;2023-02-28T00:48:40;4.70;;;1.40;;
71351;SDS011;59159;51.652;4.864;2023-02-28T00:51:06;5.45;;;1.63;;
71351;SDS011;59159;51.652;4.864;2023-02-28T00:53:32;5.43;;;1.40;;
71351;SDS011;59159;51.652;4.864;2023-02-28T00:55:58;4.27;;;1.23;;
71351;SDS011;59159;51.652;4.864;2023-02-28T00:58:24;4.70;;;1.30;;
71351;SDS011;59159;51.652;4.864;2023-02-28T01:00:51;5.22;;;1.45;;
71351;SDS011;59159;51.652;4.864;2023-02-28T01:03:18;6.23;;;1.60;;
71351;SDS011;59159;51.652;4.864;2023-02-28T01:05:44;4.03;;;1.17;;
71351;SDS011;59159;51.652;4.864;2023-02-28T01:08:10;6.68;;;2.03;;
71351;SDS011;59159;51.652;4.864;2023-02-28T01:10:36;4.78;;;1.33;;
71351;SDS011;59159;51.652;4.864;2023-02-28T01:13:03;5.23;;;1.43;;
71351;SDS011;59159;51.652;4.864;2023-02-28T01:15:29;4.40;;;1.33;;
71351;SDS011;59159;51.652;4.864;2023-02-28T01:17:56;5.05;;;1.55;;
71351;SDS011;59159;51.652;4.864;2023-02-28T01:20:22;4.73;;;1.50;;
71351;SDS011;59159;51.652;4.864;2023-02-28T01:22:49;4.88;;;1.65;;
71351;SDS011;59159;51.652;4.864;2023-02-28T01:25:15;3.92;;;1.30;;
71351;SDS011;59159;51.652;4.864;2023-02-28T01:27:41;4.47;;;1.30;;
71351;SDS011;59159;51.652;4.864;2023-02-28T01:30:07;4.97;;;1.33;;
71351;SDS011;59159;51.652;4.864;2023-02-28T01:32:33;4.55;;;1.48;;
71351;SDS011;59159;51.652;4.864;2023-02-28T01:34:59;5.05;;;1.33;;
71351;SDS011;59159;51.652;4.864;2023-02-28T01:37:25;4.10;;;1.10;;
71351;SDS011;59159;51.652;4.864;2023-02-28T01:39:51;4.15;;;1.27;;
71351;SDS011;59159;51.652;4.864;2023-02-28T01:42:17;4.03;;;1.20;;
71351;SDS011;59159;51.652;4.864;2023-02-28T01:47:45;4.85;;;1.30;;
71351;SDS011;59159;51.652;4.864;2023-02-28T01:50:15;3.45;;;1.13;;
71351;SDS011;59159;51.652;4.864;2023-02-28T01:52:43;6.77;;;1.40;;
71351;SDS011;59159;51.652;4.864;2023-02-28T01:55:09;4.63;;;1.00;;
71351;SDS011;59159;51.652;4.864;2023-02-28T01:57:38;3.40;;;1.40;;
71351;SDS011;59159;51.652;4.864;2023-02-28T02:00:06;4.95;;;1.60;;
71351;SDS011;59159;51.652;4.864;2023-02-28T02:02:34;5.17;;;1.20;;
71351;SDS011;59159;51.652;4.864;2023-02-28T02:05:04;4.15;;;1.25;;
71351;SDS011;59159;51.652;4.864;2023-02-28T02:07:31;4.10;;;1.10;;
71351;SDS011;59159;51.652;4.864;2023-02-28T02:10:11;5.37;;;1.40;;
71351;SDS011;59159;51.652;4.864;2023-02-28T02:12:47;3.85;;;1.10;;
71351;SDS011;59159;51.652;4.864;2023-02-28T02:15:29;4.18;;;1.30;;
71351;SDS011;59159;51.652;4.864;2023-02-28T02:17:57;4.07;;;1.10;;
71351;SDS011;59159;51.652;4.864;2023-02-28T02:28:24;5.00;;;1.13;;
71351;SDS011;59159;51.652;4.864;2023-02-28T02:33:41;3.90;;;1.08;;
71351;SDS011;59159;51.652;4.864;2023-02-28T02:38:39;4.07;;;1.10;;
71351;SDS011;59159;51.652;4.864;2023-02-28T02:41:24;5.07;;;1.17;;
71351;SDS011;59159;51.652;4.864;2023-02-28T02:46:41;3.20;;;1.02;;
71351;SDS011;59159;51.652;4.864;2023-02-28T02:49:08;4.55;;;1.20;;
71351;SDS011;59159;51.652;4.864;2023-02-28T02:51:35;3.92;;;1.20;;
71351;SDS011;59159;51.652;4.864;2023-02-28T02:54:04;4.03;;;1.10;;
71351;SDS011;59159;51.652;4.864;2023-02-28T02:56:33;4.75;;;1.15;;
71351;SDS011;59159;51.652;4.864;2023-02-28T02:59:02;4.45;;;1.15;;
71351;SDS011;59159;51.652;4.864;2023-02-28T03:01:28;4.73;;;1.33;;
71351;SDS011;59159;51.652;4.864;2023-02-28T03:04:00;3.80;;;1.10;;
71351;SDS011;59159;51.652;4.864;2023-02-28T03:06:26;2.90;;;0.95;;
71351;SDS011;59159;51.652;4.864;2023-02-28T03:08:53;3.73;;;1.10;;
71351;SDS011;59159;51.652;4.864;2023-02-28T03:11:19;4.78;;;1.05;;
71351;SDS011;59159;51.652;4.864;2023-02-28T03:18:53;4.13;;;0.90;;
71351;SDS011;59159;51.652;4.864;2023-02-28T03:21:23;3.75;;;0.85;;
71351;SDS011;59159;51.652;4.864;2023-02-28T03:26:30;5.33;;;1.17;;
71351;SDS011;59159;51.652;4.864;2023-02-28T03:29:02;4.22;;;1.10;;
71351;SDS011;59159;51.652;4.864;2023-02-28T03:31:32;3.40;;;1.10;;
71351;SDS011;59159;51.652;4.864;2023-02-28T03:34:03;3.77;;;0.90;;
71351;SDS011;59159;51.652;4.864;2023-02-28T03:36:31;3.22;;;0.85;;
71351;SDS011;59159;51.652;4.864;2023-02-28T03:39:02;4.70;;;0.98;;
71351;SDS011;59159;51.652;4.864;2023-02-28T03:41:32;4.20;;;1.40;;
71351;SDS011;59159;51.652;4.864;2023-02-28T03:46:50;4.28;;;1.30;;
71351;SDS011;59159;51.652;4.864;2023-02-28T03:49:20;3.95;;;1.08;;
71351;SDS011;59159;51.652;4.864;2023-02-28T03:51:47;5.07;;;1.60;;
71351;SDS011;59159;51.652;4.864;2023-02-28T03:54:16;3.28;;;0.90;;
71351;SDS011;59159;51.652;4.864;2023-02-28T03:56:56;3.50;;;0.90;;
71351;SDS011;59159;51.652;4.864;2023-02-28T03:59:26;3.80;;;0.80;;
71351;SDS011;59159;51.652;4.864;2023-02-28T04:01:53;4.15;;;1.30;;
71351;SDS011;59159;51.652;4.864;2023-02-28T04:04:20;4.32;;;1.00;;
71351;SDS011;59159;51.652;4.864;2023-02-28T04:06:49;3.58;;;1.00;;
71351;SDS011;59159;51.652;4.864;2023-02-28T04:09:16;3.93;;;0.90;;
71351;SDS011;59159;51.652;4.864;2023-02-28T04:11:42;3.97;;;1.20;;
71351;SDS011;59159;51.652;4.864;2023-02-28T04:14:10;4.30;;;1.20;;
71351;SDS011;59159;51.652;4.864;2023-02-28T04:16:37;3.77;;;1.10;;
71351;SDS011;59159;51.652;4.864;2023-02-28T04:19:04;3.90;;;0.93;;
71351;SDS011;59159;51.652;4.864;2023-02-28T04:21:34;4.13;;;1.40;;
71351;SDS011;59159;51.652;4.864;2023-02-28T04:24:01;3.90;;;1.20;;
71351;SDS011;59159;51.652;4.864;2023-02-28T04:26:30;3.67;;;0.80;;
71351;SDS011;59159;51.652;4.864;2023-02-28T04:28:57;4.63;;;1.10;;
71351;SDS011;59159;51.652;4.864;2023-02-28T04:31:23;3.42;;;1.00;;
71351;SDS011;59159;51.652;4.864;2023-02-28T04:33:49;3.43;;;1.00;;
71351;SDS011;59159;51.652;4.864;2023-02-28T04:36:15;3.92;;;1.35;;
71351;SDS011;59159;51.652;4.864;2023-02-28T04:38:42;3.90;;;1.10;;
71351;SDS011;59159;51.652;4.864;2023-02-28T04:41:09;4.47;;;0.90;;
71351;SDS011;59159;51.652;4.864;2023-02-28T04:43:35;4.75;;;1.23;;
71351;SDS011;59159;51.652;4.864;2023-02-28T04:46:02;3.67;;;0.90;;
71351;SDS011;59159;51.652;4.864;2023-02-28T04:48:28;5.03;;;1.40;;
71351;SDS011;59159;51.652;4.864;2023-02-28T04:50:55;3.38;;;0.90;;
71351;SDS011;59159;51.652;4.864;2023-02-28T04:53:21;3.38;;;1.15;;
71351;SDS011;59159;51.652;4.864;2023-02-28T04:55:47;5.20;;;1.55;;
71351;SDS011;59159;51.652;4.864;2023-02-28T04:58:13;4.73;;;1.13;;
71351;SDS011;59159;51.652;4.864;2023-02-28T05:00:39;4.90;;;1.38;;
71351;SDS011;59159;51.652;4.864;2023-02-28T05:03:05;5.00;;;1.10;;
71351;SDS011;59159;51.652;4.864;2023-02-28T05:05:31;3.73;;;0.97;;
71351;SDS011;59159;51.652;4.864;2023-02-28T05:07:57;3.70;;;0.88;;
71351;SDS011;59159;51.652;4.864;2023-02-28T05:10:24;3.60;;;1.02;;
71351;SDS011;59159;51.652;4.864;2023-02-28T05:12:50;4.60;;;1.17;;
71351;SDS011;59159;51.652;4.864;2023-02-28T05:15:16;5.97;;;1.27;;
71351;SDS011;59159;51.652;4.864;2023-02-28T05:17:42;4.20;;;1.20;;
71351;SDS011;59159;51.652;4.864;2023-02-28T05:20:09;6.50;;;1.50;;
71351;SDS011;59159;51.652;4.864;2023-02-28T05:22:38;4.10;;;1.27;;
71351;SDS011;59159;51.652;4.864;2023-02-28T05:25:05;4.68;;;1.30;;
71351;SDS011;59159;51.652;4.864;2023-02-28T05:27:31;4.05;;;1.20;;
71351;SDS011;59159;51.652;4.864;2023-02-28T05:29:57;5.07;;;1.20;;
71351;SDS011;59159;51.652;4.864;2023-02-28T05:32:23;5.00;;;1.83;;
71351;SDS011;59159;51.652;4.864;2023-02-28T05:34:50;5.55;;;1.75;;
71351;SDS011;59159;51.652;4.864;2023-02-28T05:37:16;6.90;;;1.60;;
71351;SDS011;59159;51.652;4.864;2023-02-28T05:39:42;4.80;;;1.38;;
71351;SDS011;59159;51.652;4.864;2023-02-28T05:42:08;5.00;;;1.77;;
71351;SDS011;59159;51.652;4.864;2023-02-28T05:44:35;4.45;;;1.45;;
71351;SDS011;59159;51.652;4.864;2023-02-28T05:47:01;7.07;;;2.37;;
71351;SDS011;59159;51.652;4.864;2023-02-28T05:49:27;5.20;;;1.70;;
71351;SDS011;59159;51.652;4.864;2023-02-28T05:51:53;4.15;;;1.30;;
71351;SDS011;59159;51.652;4.864;2023-02-28T05:54:19;5.03;;;1.43;;
71351;SDS011;59159;51.652;4.864;2023-02-28T05:56:45;6.35;;;1.42;;
71351;SDS011;59159;51.652;4.864;2023-02-28T05:59:14;5.38;;;2.10;;
71351;SDS011;59159;51.652;4.864;2023-02-28T06:01:41;6.40;;;1.57;;
71351;SDS011;59159;51.652;4.864;2023-02-28T06:04:10;5.15;;;1.48;;
71351;SDS011;59159;51.652;4.864;2023-02-28T06:06:36;5.03;;;1.30;;
71351;SDS011;59159;51.652;4.864;2023-02-28T06:09:03;5.18;;;1.70;;
71351;SDS011;59159;51.652;4.864;2023-02-28T06:11:29;4.80;;;1.10;;
71351;SDS011;59159;51.652;4.864;2023-02-28T06:13:56;5.43;;;1.20;;
71351;SDS011;59159;51.652;4.864;2023-02-28T06:16:22;4.13;;;1.10;;
71351;SDS011;59159;51.652;4.864;2023-02-28T06:18:48;5.03;;;1.23;;
71351;SDS011;59159;51.652;4.864;2023-02-28T06:21:14;4.45;;;1.15;;
71351;SDS011;59159;51.652;4.864;2023-02-28T06:23:40;4.20;;;1.30;;
71351;SDS011;59159;51.652;4.864;2023-02-28T06:26:06;5.50;;;1.20;;
71351;SDS011;59159;51.652;4.864;2023-02-28T06:28:32;6.28;;;1.13;;
71351;SDS011;59159;51.652;4.864;2023-02-28T06:30:58;4.25;;;1.27;;
71351;SDS011;59159;51.652;4.864;2023-02-28T06:33:24;5.10;;;1.50;;
71351;SDS011;59159;51.652;4.864;2023-02-28T06:35:50;3.77;;;1.20;;
71351;SDS011;59159;51.652;4.864;2023-02-28T06:38:17;4.00;;;1.17;;
71351;SDS011;59159;51.652;4.864;2023-02-28T06:40:43;4.15;;;1.10;;
71351;SDS011;59159;51.652;4.864;2023-02-28T06:43:09;3.87;;;1.17;;
71351;SDS011;59159;51.652;4.864;2023-02-28T06:45:41;3.72;;;1.10;;
71351;SDS011;59159;51.652;4.864;2023-02-28T06:48:07;4.22;;;1.05;;
71351;SDS011;59159;51.652;4.864;2023-02-28T06:50:33;3.10;;;1.23;;
71351;SDS011;59159;51.652;4.864;2023-02-28T06:52:59;5.22;;;1.00;;
71351;SDS011;59159;51.652;4.864;2023-02-28T06:55:25;4.45;;;1.00;;
71351;SDS011;59159;51.652;4.864;2023-02-28T06:57:51;6.55;;;1.25;;
71351;SDS011;59159;51.652;4.864;2023-02-28T07:00:17;3.70;;;1.00;;
71351;SDS011;59159;51.652;4.864;2023-02-28T07:02:43;4.53;;;1.05;;
71351;SDS011;59159;51.652;4.864;2023-02-28T07:05:09;5.25;;;1.48;;
71351;SDS011;59159;51.652;4.864;2023-02-28T07:07:35;4.13;;;0.97;;
71351;SDS011;59159;51.652;4.864;2023-02-28T07:10:03;3.88;;;1.10;;
71351;SDS011;59159;51.652;4.864;2023-02-28T07:12:29;4.82;;;1.20;;
71351;SDS011;59159;51.652;4.864;2023-02-28T07:14:55;5.77;;;1.20;;
71351;SDS011;59159;51.652;4.864;2023-02-28T07:17:21;4.80;;;1.05;;
71351;SDS011;59159;51.652;4.864;2023-02-28T07:19:47;3.80;;;0.90;;
71351;SDS011;59159;51.652;4.864;2023-02-28T07:22:13;3.55;;;1.00;;
71351;SDS011;59159;51.652;4.864;2023-02-28T07:24:39;6.20;;;1.10;;
71351;SDS011;59159;51.652;4.864;2023-02-28T07:27:05;4.50;;;1.02;;
71351;SDS011;59159;51.652;4.864;2023-02-28T07:29:31;4.07;;;1.05;;
71351;SDS011;59159;51.652;4.864;2023-02-28T07:31:57;3.17;;;0.80;;
71351;SDS011;59159;51.652;4.864;2023-02-28T07:34:23;3.00;;;0.88;;
71351;SDS011;59159;51.652;4.864;2023-02-28T07:36:52;4.22;;;1.00;;
71351;SDS011;59159;51.652;4.864;2023-02-28T07:39:18;5.37;;;0.87;;
71351;SDS011;59159;51.652;4.864;2023-02-28T07:41:44;5.47;;;1.10;;
71351;SDS011;59159;51.652;4.864;2023-02-28T07:44:10;3.97;;;0.90;;
71351;SDS011;59159;51.652;4.864;2023-02-28T07:46:37;4.05;;;1.25;;
71351;SDS011;59159;51.652;4.864;2023-02-28T07:49:03;4.50;;;1.10;;
71351;SDS011;59159;51.652;4.864;2023-02-28T07:51:29;4.18;;;1.10;;
71351;SDS011;59159;51.652;4.864;2023-02-28T07:53:56;3.53;;;0.85;;
71351;SDS011;59159;51.652;4.864;2023-02-28T07:56:22;3.60;;;1.00;;
71351;SDS011;59159;51.652;4.864;2023-02-28T07:58:48;3.45;;;0.80;;
71351;SDS011;59159;51.652;4.864;2023-02-28T08:01:14;3.53;;;0.90;;
71351;SDS011;59159;51.652;4.864;2023-02-28T08:03:40;3.83;;;0.90;;
71351;SDS011;59159;51.652;4.864;2023-02-28T08:06:07;3.80;;;0.98;;
71351;SDS011;59159;51.652;4.864;2023-02-28T08:08:34;3.40;;;0.90;;
71351;SDS011;59159;51.652;4.864;2023-02-28T08:11:00;3.72;;;1.10;;
71351;SDS011;59159;51.652;4.864;2023-02-28T08:13:27;3.50;;;0.93;;
71351;SDS011;59159;51.652;4.864;2023-02-28T08:15:54;3.92;;;0.90;;
71351;SDS011;59159;51.652;4.864;2023-02-28T08:18:20;2.90;;;0.73;;
71351;SDS011;59159;51.652;4.864;2023-02-28T08:20:46;3.43;;;0.70;;
71351;SDS011;59159;51.652;4.864;2023-02-28T08:23:12;2.88;;;0.75;;
71351;SDS011;59159;51.652;4.864;2023-02-28T08:25:38;3.65;;;0.95;;
71351;SDS011;59159;51.652;4.864;2023-02-28T08:28:04;5.07;;;1.00;;
71351;SDS011;59159;51.652;4.864;2023-02-28T08:30:30;3.83;;;0.82;;
71351;SDS011;59159;51.652;4.864;2023-02-28T08:32:57;2.28;;;0.60;;
71351;SDS011;59159;51.652;4.864;2023-02-28T08:35:24;4.13;;;1.00;;
71351;SDS011;59159;51.652;4.864;2023-02-28T08:37:50;2.60;;;0.90;;
71351;SDS011;59159;51.652;4.864;2023-02-28T08:40:16;3.05;;;0.93;;
71351;SDS011;59159;51.652;4.864;2023-02-28T08:42:45;3.33;;;0.90;;
71351;SDS011;59159;51.652;4.864;2023-02-28T08:45:12;3.67;;;0.90;;
71351;SDS011;59159;51.652;4.864;2023-02-28T08:47:39;2.90;;;0.80;;
71351;SDS011;59159;51.652;4.864;2023-02-28T08:50:05;2.80;;;0.77;;
71351;SDS011;59159;51.652;4.864;2023-02-28T08:52:31;3.40;;;0.90;;
71351;SDS011;59159;51.652;4.864;2023-02-28T08:54:58;3.42;;;0.88;;
71351;SDS011;59159;51.652;4.864;2023-02-28T08:57:24;3.42;;;1.00;;
71351;SDS011;59159;51.652;4.864;2023-02-28T08:59:51;3.90;;;0.70;;
71351;SDS011;59159;51.652;4.864;2023-02-28T09:02:17;3.97;;;0.90;;
71351;SDS011;59159;51.652;4.864;2023-02-28T09:04:43;3.50;;;1.10;;
71351;SDS011;59159;51.652;4.864;2023-02-28T09:07:10;2.65;;;0.68;;
71351;SDS011;59159;51.652;4.864;2023-02-28T09:09:36;2.37;;;0.70;;
71351;SDS011;59159;51.652;4.864;2023-02-28T09:12:25;3.75;;;0.88;;
71351;SDS011;59159;51.652;4.864;2023-02-28T09:14:51;3.25;;;0.80;;
71351;SDS011;59159;51.652;4.864;2023-02-28T09:17:18;1.93;;;0.60;;
71351;SDS011;59159;51.652;4.864;2023-02-28T09:19:44;2.90;;;0.60;;
71351;SDS011;59159;51.652;4.864;2023-02-28T09:22:10;2.58;;;0.70;;
71351;SDS011;59159;51.652;4.864;2023-02-28T09:24:37;2.42;;;0.70;;
71351;SDS011;59159;51.652;4.864;2023-02-28T09:27:03;2.63;;;0.60;;
71351;SDS011;59159;51.652;4.864;2023-02-28T09:29:29;3.35;;;0.85;;
71351;SDS011;59159;51.652;4.864;2023-02-28T09:31:55;2.97;;;0.60;;
71351;SDS011;59159;51.652;4.864;2023-02-28T09:34:24;2.60;;;0.70;;
71351;SDS011;59159;51.652;4.864;2023-02-28T09:36:50;2.83;;;0.85;;
71351;SDS011;59159;51.652;4.864;2023-02-28T09:39:20;3.90;;;0.70;;
71351;SDS011;59159;51.652;4.864;2023-02-28T09:41:47;4.13;;;0.63;;
71351;SDS011;59159;51.652;4.864;2023-02-28T09:47:13;3.05;;;0.80;;
71351;SDS011;59159;51.652;4.864;2023-02-28T09:49:40;3.15;;;0.80;;
71351;SDS011;59159;51.652;4.864;2023-02-28T09:52:21;3.27;;;0.70;;
71351;SDS011;59159;51.652;4.864;2023-02-28T09:54:51;2.65;;;0.60;;
71351;SDS011;59159;51.652;4.864;2023-02-28T09:57:32;3.40;;;0.60;;
71351;SDS011;59159;51.652;4.864;2023-02-28T10:00:02;2.83;;;0.70;;
71351;SDS011;59159;51.652;4.864;2023-02-28T10:05:15;2.28;;;0.63;;
71351;SDS011;59159;51.652;4.864;2023-02-28T10:12:46;2.88;;;0.80;;
71351;SDS011;59159;51.652;4.864;2023-02-28T10:15:13;2.83;;;0.70;;
71351;SDS011;59159;51.652;4.864;2023-02-28T10:17:41;2.60;;;0.60;;
71351;SDS011;59159;51.652;4.864;2023-02-28T10:20:12;2.72;;;0.70;;
71351;SDS011;59159;51.652;4.864;2023-02-28T10:25:20;2.13;;;0.67;;
71351;SDS011;59159;51.652;4.864;2023-02-28T10:27:46;1.90;;;0.65;;
71351;SDS011;59159;51.652;4.864;2023-02-28T10:30:12;2.30;;;0.60;;
71351;SDS011;59159;51.652;4.864;2023-02-28T10:32:45;2.87;;;0.60;;
71351;SDS011;59159;51.652;4.864;2023-02-28T10:35:18;2.53;;;0.63;;
71351;SDS011;59159;51.652;4.864;2023-02-28T10:37:45;2.38;;;0.57;;
71351;SDS011;59159;51.652;4.864;2023-02-28T10:43:11;2.20;;;0.70;;
71351;SDS011;59159;51.652;4.864;2023-02-28T10:50:50;3.23;;;0.80;;
71351;SDS011;59159;51.652;4.864;2023-02-28T10:56:02;2.03;;;0.50;;
71351;SDS011;59159;51.652;4.864;2023-02-28T10:58:29;2.27;;;0.60;;
71351;SDS011;59159;51.652;4.864;2023-02-28T11:00:56;2.63;;;0.60;;
71351;SDS011;59159;51.652;4.864;2023-02-28T11:05:51;2.72;;;0.70;;
71351;SDS011;59159;51.652;4.864;2023-02-28T11:08:17;2.37;;;0.77;;
71351;SDS011;59159;51.652;4.864;2023-02-28T11:10:44;3.63;;;0.63;;
71351;SDS011;59159;51.652;4.864;2023-02-28T11:13:17;2.75;;;0.75;;
71351;SDS011;59159;51.652;4.864;2023-02-28T11:15:52;1.80;;;0.50;;
71351;SDS011;59159;51.652;4.864;2023-02-28T11:20:47;2.20;;;0.70;;
71351;SDS011;59159;51.652;4.864;2023-02-28T11:23:14;2.47;;;0.70;;
71351;SDS011;59159;51.652;4.864;2023-02-28T11:25:45;2.70;;;0.70;;
71351;SDS011;59159;51.652;4.864;2023-02-28T11:28:29;3.15;;;0.80;;
71351;SDS011;59159;51.652;4.864;2023-02-28T11:31:00;2.22;;;0.73;;
71351;SDS011;59159;51.652;4.864;2023-02-28T11:33:28;4.60;;;0.77;;
71351;SDS011;59159;51.652;4.864;2023-02-28T11:36:02;2.97;;;1.02;;
71351;SDS011;59159;51.652;4.864;2023-02-28T11:38:29;1.70;;;0.50;;
71351;SDS011;59159;51.652;4.864;2023-02-28T11:46:06;2.08;;;0.60;;
71351;SDS011;59159;51.652;4.864;2023-02-28T11:48:59;2.77;;;0.60;;
71351;SDS011;59159;51.652;4.864;2023-02-28T11:51:41;2.95;;;0.63;;
71351;SDS011;59159;51.652;4.864;2023-02-28T11:57:09;2.72;;;0.70;;
71351;SDS011;59159;51.652;4.864;2023-02-28T11:59:36;2.63;;;0.60;;
71351;SDS011;59159;51.652;4.864;2023-02-28T12:02:20;3.58;;;0.88;;
71351;SDS011;59159;51.652;4.864;2023-02-28T12:10:25;2.22;;;0.70;;
71351;SDS011;59159;51.652;4.864;2023-02-28T12:15:25;2.27;;;0.70;;
71351;SDS011;59159;51.652;4.864;2023-02-28T12:23:19;2.40;;;0.70;;
71351;SDS011;59159;51.652;4.864;2023-02-28T12:25:49;2.53;;;0.60;;
71351;SDS011;59159;51.652;4.864;2023-02-28T12:28:18;3.17;;;0.68;;
71351;SDS011;59159;51.652;4.864;2023-02-28T12:30:49;2.58;;;0.65;;
71351;SDS011;59159;51.652;4.864;2023-02-28T12:33:16;2.20;;;0.60;;
71351;SDS011;59159;51.652;4.864;2023-02-28T12:35:47;2.35;;;0.80;;
71351;SDS011;59159;51.652;4.864;2023-02-28T12:38:19;2.78;;;0.75;;
71351;SDS011;59159;51.652;4.864;2023-02-28T12:40:51;2.07;;;0.53;;
71351;SDS011;59159;51.652;4.864;2023-02-28T12:43:19;2.40;;;0.60;;
71351;SDS011;59159;51.652;4.864;2023-02-28T12:51:16;6.27;;;0.67;;
71351;SDS011;59159;51.652;4.864;2023-02-28T12:58:45;1.93;;;0.40;;
71351;SDS011;59159;51.652;4.864;2023-02-28T13:04:07;2.90;;;0.80;;
71351;SDS011;59159;51.652;4.864;2023-02-28T13:06:43;2.90;;;0.63;;
71351;SDS011;59159;51.652;4.864;2023-02-28T13:09:11;2.47;;;0.70;;
71351;SDS011;59159;51.652;4.864;2023-02-28T13:11:41;2.25;;;0.80;;
71351;SDS011;59159;51.652;4.864;2023-02-28T13:16:47;2.67;;;0.70;;
71351;SDS011;59159;51.652;4.864;2023-02-28T13:19:16;2.13;;;0.60;;
71351;SDS011;59159;51.652;4.864;2023-02-28T13:21:43;2.35;;;0.60;;
71351;SDS011;59159;51.652;4.864;2023-02-28T13:24:10;1.50;;;0.60;;
71351;SDS011;59159;51.652;4.864;2023-02-28T13:32:18;2.67;;;0.60;;
71351;SDS011;59159;51.652;4.864;2023-02-28T13:47:36;2.70;;;0.70;;
71351;SDS011;59159;51.652;4.864;2023-02-28T13:55:37;2.17;;;0.70;;
71351;SDS011;59159;51.652;4.864;2023-02-28T14:01:02;2.22;;;0.47;;
71351;SDS011;59159;51.652;4.864;2023-02-28T14:06:08;2.85;;;0.80;;
71351;SDS011;59159;51.652;4.864;2023-02-28T14:08:35;4.23;;;0.90;;
71351;SDS011;59159;51.652;4.864;2023-02-28T14:11:06;2.70;;;0.70;;
71351;SDS011;59159;51.652;4.864;2023-02-28T14:13:42;1.63;;;0.52;;
71351;SDS011;59159;51.652;4.864;2023-02-28T14:16:21;1.80;;;0.57;;
71351;SDS011;59159;51.652;4.864;2023-02-28T14:18:56;2.30;;;0.60;;
71351;SDS011;59159;51.652;4.864;2023-02-28T14:21:27;2.15;;;0.70;;
71351;SDS011;59159;51.652;4.864;2023-02-28T14:31:36;2.00;;;0.65;;
71351;SDS011;59159;51.652;4.864;2023-02-28T14:34:05;2.20;;;0.77;;
71351;SDS011;59159;51.652;4.864;2023-02-28T14:36:36;2.58;;;0.70;;
71351;SDS011;59159;51.652;4.864;2023-02-28T14:39:10;1.83;;;0.60;;
71351;SDS011;59159;51.652;4.864;2023-02-28T14:41:39;2.67;;;0.73;;
71351;SDS011;59159;51.652;4.864;2023-02-28T14:44:18;2.35;;;0.68;;
71351;SDS011;59159;51.652;4.864;2023-02-28T14:46:45;3.60;;;0.80;;
71351;SDS011;59159;51.652;4.864;2023-02-28T14:49:13;1.97;;;0.60;;
71351;SDS011;59159;51.652;4.864;2023-02-28T14:51:41;2.30;;;0.75;;
71351;SDS011;59159;51.652;4.864;2023-02-28T14:54:12;3.05;;;0.70;;
71351;SDS011;59159;51.652;4.864;2023-02-28T14:56:39;2.08;;;0.60;;
71351;SDS011;59159;51.652;4.864;2023-02-28T14:59:06;2.27;;;0.60;;
71351;SDS011;59159;51.652;4.864;2023-02-28T15:01:47;1.88;;;0.55;;
71351;SDS011;59159;51.652;4.864;2023-02-28T15:04:18;3.10;;;0.70;;
71351;SDS011;59159;51.652;4.864;2023-02-28T15:06:46;2.63;;;0.60;;
71351;SDS011;59159;51.652;4.864;2023-02-28T15:09:16;2.28;;;0.70;;
71351;SDS011;59159;51.652;4.864;2023-02-28T15:11:45;1.85;;;0.60;;
71351;SDS011;59159;51.652;4.864;2023-02-28T15:14:14;2.83;;;0.87;;
71351;SDS011;59159;51.652;4.864;2023-02-28T15:16:41;5.07;;;1.00;;
71351;SDS011;59159;51.652;4.864;2023-02-28T15:19:17;7.90;;;1.40;;
71351;SDS011;59159;51.652;4.864;2023-02-28T15:21:46;8.68;;;1.40;;
71351;SDS011;59159;51.652;4.864;2023-02-28T15:24:15;7.27;;;1.37;;
71351;SDS011;59159;51.652;4.864;2023-02-28T15:26:49;5.43;;;1.85;;
71351;SDS011;59159;51.652;4.864;2023-02-28T15:29:17;6.65;;;2.60;;
71351;SDS011;59159;51.652;4.864;2023-02-28T15:32:06;10.10;;;1.90;;
71351;SDS011;59159;51.652;4.864;2023-02-28T15:34:38;5.75;;;2.22;;
71351;SDS011;59159;51.652;4.864;2023-02-28T15:39:49;5.37;;;2.20;;
71351;SDS011;59159;51.652;4.864;2023-02-28T15:42:19;8.23;;;2.58;;
71351;SDS011;59159;51.652;4.864;2023-02-28T15:44:46;7.53;;;2.90;;
71351;SDS011;59159;51.652;4.864;2023-02-28T15:47:25;6.72;;;2.25;;
71351;SDS011;59159;51.652;4.864;2023-02-28T15:49:52;6.17;;;2.47;;
71351;SDS011;59159;51.652;4.864;2023-02-28T15:52:27;5.68;;;1.85;;
71351;SDS011;59159;51.652;4.864;2023-02-28T15:54:54;6.70;;;2.03;;
71351;SDS011;59159;51.652;4.864;2023-02-28T15:57:24;5.03;;;1.90;;
71351;SDS011;59159;51.652;4.864;2023-02-28T15:59:55;7.22;;;2.20;;
71351;SDS011;59159;51.652;4.864;2023-02-28T16:02:25;6.15;;;1.90;;
71351;SDS011;59159;51.652;4.864;2023-02-28T16:07:37;5.25;;;1.80;;
71351;SDS011;59159;51.652;4.864;2023-02-28T16:10:04;4.53;;;1.40;;
71351;SDS011;59159;51.652;4.864;2023-02-28T16:12:31;6.03;;;1.90;;
71351;SDS011;59159;51.652;4.864;2023-02-28T16:14:59;5.30;;;1.57;;
71351;SDS011;59159;51.652;4.864;2023-02-28T16:17:28;4.93;;;1.52;;
71351;SDS011;59159;51.652;4.864;2023-02-28T16:19:54;4.15;;;1.10;;
71351;SDS011;59159;51.652;4.864;2023-02-28T16:22:20;5.50;;;1.40;;
71351;SDS011;59159;51.652;4.864;2023-02-28T16:24:46;4.15;;;1.13;;
71351;SDS011;59159;51.652;4.864;2023-02-28T16:27:17;3.83;;;1.00;;
71351;SDS011;59159;51.652;4.864;2023-02-28T16:29:44;3.63;;;1.20;;
71351;SDS011;59159;51.652;4.864;2023-02-28T16:32:11;4.28;;;0.93;;
71351;SDS011;59159;51.652;4.864;2023-02-28T16:34:38;6.45;;;1.38;;
71351;SDS011;59159;51.652;4.864;2023-02-28T16:37:05;4.13;;;1.15;;
71351;SDS011;59159;51.652;4.864;2023-02-28T16:39:35;4.50;;;1.20;;
71351;SDS011;59159;51.652;4.864;2023-02-28T16:42:01;4.45;;;1.08;;
71351;SDS011;59159;51.652;4.864;2023-02-28T16:44:32;5.18;;;1.13;;
71351;SDS011;59159;51.652;4.864;2023-02-28T16:47:03;6.57;;;1.53;;
71351;SDS011;59159;51.652;4.864;2023-02-28T16:49:29;3.40;;;0.93;;
71351;SDS011;59159;51.652;4.864;2023-02-28T16:51:55;3.38;;;0.80;;
71351;SDS011;59159;51.652;4.864;2023-02-28T16:54:21;7.03;;;1.10;;
71351;SDS011;59159;51.652;4.864;2023-02-28T16:56:47;5.22;;;1.67;;
71351;SDS011;59159;51.652;4.864;2023-02-28T16:59:15;3.25;;;0.75;;
71351;SDS011;59159;51.652;4.864;2023-02-28T17:01:43;5.50;;;0.80;;
71351;SDS011;59159;51.652;4.864;2023-02-28T17:04:10;6.80;;;1.10;;
71351;SDS011;59159;51.652;4.864;2023-02-28T17:06:37;6.18;;;1.02;;
71351;SDS011;59159;51.652;4.864;2023-02-28T17:09:03;4.60;;;0.90;;
71351;SDS011;59159;51.652;4.864;2023-02-28T17:11:29;3.43;;;1.13;;
71351;SDS011;59159;51.652;4.864;2023-02-28T17:13:55;5.15;;;0.90;;